Time;durP1;ratioP1;P1;durP2;ratioP2;P2;SDS_P1;SDS_P2;PMS_P1;PMS_P2;Temp;Humidity;BMP_temperature;BMP_pressure;BME280_temperature;BME280_humidity;BME280_pressure;Samples;Min_cycle;Max_cycle;Signal;HPM_P1;HPM_P2
2021/08/06 00:00:16;;;;;;;6.93;6.43;;;18.00;99.90;;;;;;5031043;28;20179;-67
2021/08/06 00:02:42;;;;;;;6.97;6.50;;;18.00;99.90;;;;;;5031382;28;20254;-67
2021/08/06 00:05:09;;;;;;;7.13;6.47;;;18.00;99.90;;;;;;5031275;28;20183;-67
2021/08/06 00:07:34;;;;;;;7.33;6.77;;;18.10;99.90;;;;;;5031473;28;20178;-67
2021/08/06 00:10:00;;;;;;;7.30;6.80;;;18.10;99.90;;;;;;5030814;28;20195;-67
2021/08/06 00:12:26;;;;;;;7.87;7.27;;;18.10;99.90;;;;;;5031263;28;20186;-67
2021/08/06 00:14:52;;;;;;;7.00;6.50;;;18.10;99.90;;;;;;5029950;28;20175;-67
2021/08/06 00:17:18;;;;;;;7.17;6.60;;;18.00;99.90;;;;;;5031040;28;20671;-67
2021/08/06 00:19:43;;;;;;;6.90;6.43;;;18.00;99.90;;;;;;5030940;28;20180;-67
2021/08/06 00:22:09;;;;;;;7.30;6.80;;;18.00;99.90;;;;;;5031069;28;20546;-67
2021/08/06 00:24:35;;;;;;;8.03;7.47;;;18.00;99.90;;;;;;5031185;28;20636;-67
2021/08/06 00:27:00;;;;;;;7.40;6.90;;;18.00;99.90;;;;;;5029967;28;20176;-67
2021/08/06 00:29:26;;;;;;;8.17;7.67;;;18.00;99.90;;;;;;5029445;28;20645;-67
2021/08/06 00:31:52;;;;;;;8.20;7.70;;;18.00;99.90;;;;;;5031451;28;20632;-67
2021/08/06 00:34:18;;;;;;;8.33;7.83;;;17.90;99.90;;;;;;5031258;28;20172;-67
2021/08/06 00:36:43;;;;;;;8.23;7.83;;;18.00;99.90;;;;;;5029618;28;20175;-67
2021/08/06 00:39:09;;;;;;;8.53;7.90;;;17.90;99.90;;;;;;5031227;28;20191;-67
2021/08/06 00:41:34;;;;;;;8.27;7.60;;;18.00;99.90;;;;;;5030917;28;20180;-67
2021/08/06 00:44:00;;;;;;;7.00;6.53;;;18.00;99.90;;;;;;5029828;28;20171;-67
2021/08/06 00:46:26;;;;;;;7.47;6.73;;;18.00;99.90;;;;;;5030839;28;20255;-66
2021/08/06 00:48:52;;;;;;;6.93;6.27;;;18.00;99.90;;;;;;5030904;28;20803;-67
2021/08/06 00:51:19;;;;;;;6.83;6.30;;;18.00;99.90;;;;;;5030195;28;20563;-67
2021/08/06 00:53:44;;;;;;;6.33;5.93;;;18.10;99.90;;;;;;5029845;28;20664;-67
2021/08/06 00:56:10;;;;;;;6.70;6.30;;;18.10;99.90;;;;;;5029901;28;20183;-67
2021/08/06 00:58:40;;;;;;;6.53;6.13;;;18.10;99.90;;;;;;5030955;28;20201;-67
2021/08/06 01:01:05;;;;;;;7.23;6.80;;;18.20;99.90;;;;;;5029321;28;20198;-67
2021/08/06 01:03:50;;;;;;;6.73;6.33;;;18.10;99.90;;;;;;5030722;28;20175;-67
2021/08/06 01:06:30;;;;;;;6.63;6.30;;;18.20;99.90;;;;;;5030908;28;20179;-67
2021/08/06 01:09:01;;;;;;;6.63;6.10;;;18.10;99.90;;;;;;5030847;28;20680;-67
2021/08/06 01:11:31;;;;;;;6.70;6.20;;;18.10;99.90;;;;;;5030299;28;20199;-67
2021/08/06 01:13:59;;;;;;;6.40;6.00;;;18.10;99.90;;;;;;5030613;28;20182;-67
2021/08/06 01:16:31;;;;;;;6.87;6.40;;;18.10;99.90;;;;;;5030632;28;20168;-67
2021/08/06 01:19:22;;;;;;;6.70;6.20;;;18.10;99.90;;;;;;5029219;28;20693;-67
2021/08/06 01:21:56;;;;;;;6.27;5.83;;;18.10;99.90;;;;;;5031073;28;20522;-67
2021/08/06 01:24:24;;;;;;;7.00;6.60;;;18.10;99.90;;;;;;5030648;28;20176;-67
2021/08/06 01:26:49;;;;;;;6.80;6.40;;;18.10;99.90;;;;;;5029727;28;20210;-67
2021/08/06 01:29:15;;;;;;;7.23;6.73;;;18.10;99.90;;;;;;5032874;28;20639;-67
2021/08/06 01:31:43;;;;;;;7.30;6.80;;;18.10;99.90;;;;;;5034097;28;20250;-67
2021/08/06 01:34:08;;;;;;;7.03;6.60;;;18.10;99.90;;;;;;5034058;28;20517;-67
2021/08/06 01:36:34;;;;;;;7.13;6.70;;;18.10;99.90;;;;;;5033246;28;20266;-67
2021/08/06 01:39:00;;;;;;;6.80;6.40;;;18.10;99.90;;;;;;5033868;28;20183;-66
2021/08/06 01:42:02;;;;;;;7.30;6.87;;;18.10;99.90;;;;;;5032512;28;20603;-67
2021/08/06 01:44:48;;;;;;;7.20;6.80;;;18.10;99.90;;;;;;5032239;28;20644;-67
2021/08/06 01:47:19;;;;;;;7.43;6.90;;;18.10;99.90;;;;;;5032578;28;20274;-67
2021/08/06 01:49:49;;;;;;;7.20;6.80;;;18.10;99.90;;;;;;5032998;28;20687;-67
2021/08/06 01:52:20;;;;;;;7.17;6.47;;;18.10;99.90;;;;;;5032566;28;20201;-67
2021/08/06 01:54:48;;;;;;;7.17;6.67;;;18.10;99.90;;;;;;5032199;28;20210;-67
2021/08/06 01:57:14;;;;;;;7.10;6.60;;;18.10;99.90;;;;;;5033702;28;20266;-67
2021/08/06 01:59:42;;;;;;;7.27;6.67;;;18.10;99.90;;;;;;5033107;28;20293;-67
2021/08/06 02:02:09;;;;;;;6.47;6.07;;;18.10;99.90;;;;;;5031966;28;20233;-67
2021/08/06 02:04:35;;;;;;;6.93;6.43;;;18.10;99.90;;;;;;5033349;28;20702;-67
2021/08/06 02:07:01;;;;;;;7.10;6.50;;;18.10;99.90;;;;;;5033226;28;20179;-67
2021/08/06 02:09:27;;;;;;;6.87;6.47;;;18.10;99.90;;;;;;5031868;28;20692;-67
2021/08/06 02:11:53;;;;;;;6.77;6.37;;;18.10;99.90;;;;;;5033354;28;20203;-67
2021/08/06 02:14:20;;;;;;;7.13;6.47;;;18.10;99.90;;;;;;5033424;28;20242;-67
2021/08/06 02:16:48;;;;;;;6.60;6.20;;;18.20;99.90;;;;;;5033252;28;20199;-67
2021/08/06 02:19:15;;;;;;;7.40;6.90;;;18.20;99.90;;;;;;5033432;28;20245;-67
2021/08/06 02:21:43;;;;;;;7.20;6.67;;;18.20;99.90;;;;;;5033070;28;20187;-67
2021/08/06 02:24:11;;;;;;;7.40;6.77;;;18.20;99.90;;;;;;5031657;28;20266;-67
2021/08/06 02:26:39;;;;;;;6.33;5.83;;;18.10;99.90;;;;;;5033453;28;20191;-67
2021/08/06 02:29:09;;;;;;;7.07;6.57;;;18.00;99.90;;;;;;5031566;28;20243;-67
2021/08/06 02:31:36;;;;;;;7.63;7.03;;;17.90;99.90;;;;;;5033084;28;20210;-67
2021/08/06 02:34:02;;;;;;;7.67;7.07;;;17.90;99.90;;;;;;5032959;28;20180;-67
2021/08/06 02:36:28;;;;;;;6.80;6.30;;;17.80;99.90;;;;;;5033132;28;20183;-67
2021/08/06 02:38:58;;;;;;;7.20;6.70;;;17.80;99.90;;;;;;5031161;28;20612;-67
2021/08/06 02:41:25;;;;;;;7.77;7.20;;;17.70;99.90;;;;;;5031773;28;20183;-67
2021/08/06 02:43:51;;;;;;;7.40;6.93;;;17.60;99.90;;;;;;5031564;28;20293;-67
2021/08/06 02:46:17;;;;;;;8.37;7.67;;;17.50;99.90;;;;;;5031238;28;20270;-67
2021/08/06 02:48:42;;;;;;;7.63;7.13;;;17.40;99.90;;;;;;5032897;28;20213;-67
2021/08/06 02:51:08;;;;;;;9.23;8.60;;;17.40;99.90;;;;;;5030992;28;20676;-67
2021/08/06 02:53:33;;;;;;;7.33;6.93;;;17.40;99.90;;;;;;5032492;28;20226;-67
2021/08/06 02:55:59;;;;;;;7.97;7.37;;;17.30;99.90;;;;;;5032730;28;20179;-67
2021/08/06 02:58:25;;;;;;;7.57;7.00;;;17.30;99.90;;;;;;5032763;28;20612;-67
2021/08/06 03:00:50;;;;;;;8.17;7.47;;;17.30;99.90;;;;;;5030870;28;20815;-67
2021/08/06 03:03:16;;;;;;;6.83;6.43;;;17.20;99.90;;;;;;5032431;28;20545;-67
2021/08/06 03:05:42;;;;;;;8.00;7.50;;;17.20;99.90;;;;;;5030401;28;20186;-67
2021/08/06 03:08:07;;;;;;;8.60;7.97;;;17.20;99.90;;;;;;5031824;28;20246;-67
2021/08/06 03:10:34;;;;;;;8.23;7.67;;;17.20;99.90;;;;;;5030489;28;20203;-67
2021/08/06 03:12:59;;;;;;;8.03;7.53;;;17.10;99.90;;;;;;5032143;28;20707;-67
2021/08/06 03:15:25;;;;;;;7.33;6.83;;;17.10;99.90;;;;;;5032025;28;20184;-67
2021/08/06 03:17:51;;;;;;;8.10;7.47;;;17.10;99.90;;;;;;5032049;28;20203;-67
2021/08/06 03:20:20;;;;;;;8.07;7.37;;;17.10;99.90;;;;;;5030299;28;20198;-67
2021/08/06 03:22:46;;;;;;;8.00;7.40;;;17.10;99.90;;;;;;5032173;28;20278;-67
2021/08/06 03:25:12;;;;;;;7.47;6.90;;;17.10;99.90;;;;;;5031650;28;20203;-67
2021/08/06 03:27:38;;;;;;;7.97;7.37;;;17.10;99.90;;;;;;5032445;28;20684;-71
2021/08/06 03:30:06;;;;;;;8.03;7.33;;;17.10;99.90;;;;;;5031696;28;20206;-72
2021/08/06 03:32:32;;;;;;;7.53;7.03;;;17.10;99.90;;;;;;5032461;28;20644;-73
2021/08/06 03:34:57;;;;;;;8.03;7.43;;;17.10;99.90;;;;;;5031836;28;20186;-70
2021/08/06 03:37:23;;;;;;;8.47;7.87;;;17.10;99.90;;;;;;5033274;28;20183;-71
2021/08/06 03:39:49;;;;;;;8.10;7.53;;;17.10;99.90;;;;;;5033286;28;20214;-73
2021/08/06 03:42:14;;;;;;;7.83;7.33;;;17.10;99.90;;;;;;5032012;28;20660;-73
2021/08/06 03:44:40;;;;;;;7.50;7.00;;;17.10;99.90;;;;;;5033214;28;20266;-74
2021/08/06 03:47:06;;;;;;;8.17;7.57;;;17.10;99.90;;;;;;5032262;28;20858;-73
2021/08/06 03:49:31;;;;;;;7.50;7.03;;;17.10;99.90;;;;;;5055744;22;20570;-65
2021/08/06 03:51:57;;;;;;;7.83;7.33;;;17.00;99.90;;;;;;5031198;28;20211;-66
2021/08/06 03:54:22;;;;;;;7.97;7.37;;;17.00;99.90;;;;;;5031469;28;20258;-66
2021/08/06 03:56:48;;;;;;;7.40;6.90;;;17.00;99.90;;;;;;5031724;28;20167;-66
2021/08/06 03:59:14;;;;;;;8.80;8.10;;;17.00;99.90;;;;;;5031045;28;20203;-66
2021/08/06 04:01:39;;;;;;;8.30;7.70;;;17.00;99.90;;;;;;5031009;28;20193;-66
2021/08/06 04:04:07;;;;;;;7.70;7.10;;;17.00;99.90;;;;;;5031053;28;20683;-66
2021/08/06 04:06:33;;;;;;;8.37;7.67;;;17.00;99.90;;;;;;5031301;28;20245;-66
2021/08/06 04:08:58;;;;;;;7.57;6.90;;;17.00;99.90;;;;;;5030472;28;20199;-66
2021/08/06 04:11:24;;;;;;;7.43;6.93;;;17.00;99.90;;;;;;5031048;28;20218;-67
2021/08/06 04:13:50;;;;;;;8.17;7.57;;;17.00;99.90;;;;;;5031599;28;20624;-67
2021/08/06 04:16:15;;;;;;;7.83;7.30;;;17.00;99.90;;;;;;5031109;28;20187;-66
2021/08/06 04:18:41;;;;;;;8.50;7.83;;;17.00;99.90;;;;;;5031142;28;20271;-66
2021/08/06 04:21:06;;;;;;;7.80;7.27;;;17.00;99.90;;;;;;5031534;28;20171;-66
2021/08/06 04:23:32;;;;;;;8.37;7.87;;;16.90;99.90;;;;;;5031187;28;20183;-66
2021/08/06 04:25:58;;;;;;;8.00;7.40;;;17.00;99.90;;;;;;5031450;28;20537;-66
2021/08/06 04:28:23;;;;;;;8.43;7.70;;;17.00;99.90;;;;;;5030815;28;20301;-66
2021/08/06 04:30:49;;;;;;;8.80;8.00;;;17.00;99.90;;;;;;5031264;28;20203;-66
2021/08/06 04:33:15;;;;;;;9.00;8.23;;;17.00;99.90;;;;;;5030294;28;20241;-66
2021/08/06 04:35:41;;;;;;;9.17;8.47;;;17.10;99.90;;;;;;5030659;28;20211;-67
2021/08/06 04:38:06;;;;;;;8.30;7.70;;;17.10;99.90;;;;;;5030855;28;20206;-66
2021/08/06 04:40:32;;;;;;;8.50;7.73;;;17.10;99.90;;;;;;5031050;28;20604;-67
2021/08/06 04:42:57;;;;;;;9.00;8.30;;;17.10;99.90;;;;;;5030147;28;20189;-66
2021/08/06 04:45:23;;;;;;;8.73;7.93;;;17.20;99.90;;;;;;5030835;28;20603;-67
2021/08/06 04:47:51;;;;;;;8.67;7.97;;;17.20;99.90;;;;;;5029555;28;20184;-66
2021/08/06 04:50:20;;;;;;;8.37;7.67;;;17.20;99.90;;;;;;5029386;28;20203;-66
2021/08/06 04:52:46;;;;;;;8.40;7.80;;;17.20;99.90;;;;;;5031007;28;20545;-66
2021/08/06 04:55:13;;;;;;;8.03;7.37;;;17.20;99.90;;;;;;5030817;28;20184;-66
2021/08/06 04:57:39;;;;;;;8.93;8.23;;;17.30;99.90;;;;;;5030652;28;20172;-67
2021/08/06 05:00:06;;;;;;;8.60;8.00;;;17.30;99.90;;;;;;5030240;28;20219;-67
2021/08/06 05:02:31;;;;;;;8.40;7.70;;;17.30;99.90;;;;;;5030867;28;20189;-66
2021/08/06 05:04:57;;;;;;;7.83;7.33;;;17.30;99.90;;;;;;5033807;28;20179;-66
2021/08/06 05:07:23;;;;;;;7.40;6.87;;;17.40;99.90;;;;;;5034451;28;20266;-67
2021/08/06 05:09:48;;;;;;;7.70;7.03;;;17.40;99.90;;;;;;5034133;28;20442;-66
2021/08/06 05:12:14;;;;;;;9.23;8.50;;;17.40;99.90;;;;;;5033959;28;20317;-67
2021/08/06 05:14:41;;;;;;;8.87;8.07;;;17.40;99.90;;;;;;5034566;28;20175;-66
2021/08/06 05:17:07;;;;;;;8.60;8.00;;;17.50;99.90;;;;;;5034009;28;20171;-66
2021/08/06 05:19:33;;;;;;;8.07;7.47;;;17.50;99.90;;;;;;5034246;28;20187;-67
2021/08/06 05:21:59;;;;;;;7.87;7.27;;;17.50;99.90;;;;;;5034374;28;20210;-66
2021/08/06 05:24:24;;;;;;;8.40;7.70;;;17.50;99.90;;;;;;5034252;28;20609;-66
2021/08/06 05:26:50;;;;;;;8.03;7.43;;;17.50;99.90;;;;;;5034171;28;20211;-67
2021/08/06 05:29:15;;;;;;;7.80;7.20;;;17.60;99.90;;;;;;5033425;28;20603;-67
2021/08/06 05:31:41;;;;;;;8.47;7.63;;;17.50;99.90;;;;;;5034261;28;20207;-66
2021/08/06 05:34:07;;;;;;;8.17;7.53;;;17.50;99.90;;;;;;5034017;28;20820;-65
2021/08/06 05:36:32;;;;;;;8.00;7.20;;;17.40;99.90;;;;;;5034379;28;20653;-66
2021/08/06 05:38:58;;;;;;;9.00;8.47;;;17.30;99.90;;;;;;5033920;28;20231;-65
2021/08/06 05:41:23;;;;;;;8.33;7.83;;;17.20;99.90;;;;;;5034137;28;20172;-65
2021/08/06 05:43:49;;;;;;;8.60;8.00;;;17.20;99.90;;;;;;5033659;28;20199;-66
2021/08/06 05:46:15;;;;;;;8.80;8.10;;;17.10;99.90;;;;;;5034061;28;20171;-66
2021/08/06 05:48:40;;;;;;;8.37;7.87;;;17.10;99.90;;;;;;5033703;28;20211;-66
2021/08/06 05:51:06;;;;;;;8.47;7.87;;;17.10;99.90;;;;;;5033675;28;20211;-66
2021/08/06 05:53:32;;;;;;;8.90;8.07;;;17.10;99.90;;;;;;5033571;28;20657;-66
2021/08/06 05:55:59;;;;;;;9.77;8.77;;;17.00;99.90;;;;;;5033792;28;20175;-65
2021/08/06 05:58:25;;;;;;;10.23;9.53;;;17.10;99.90;;;;;;5033659;28;20183;-66
2021/08/06 06:00:50;;;;;;;8.93;8.20;;;17.00;99.90;;;;;;5032955;28;20178;-67
2021/08/06 06:03:17;;;;;;;11.20;7.70;;;17.10;99.90;;;;;;5033738;28;20178;-66
2021/08/06 06:05:43;;;;;;;8.97;8.17;;;17.10;99.90;;;;;;5032845;28;20171;-66
2021/08/06 06:08:09;;;;;;;11.73;10.83;;;17.10;99.90;;;;;;5031326;28;20687;-67
2021/08/06 06:10:35;;;;;;;9.97;9.17;;;17.20;99.90;;;;;;5033155;28;20233;-66
2021/08/06 06:13:00;;;;;;;10.20;9.30;;;17.20;99.90;;;;;;5033684;28;20659;-66
2021/08/06 06:15:26;;;;;;;11.17;10.10;;;17.20;99.90;;;;;;5033114;28;20175;-67
2021/08/06 06:17:52;;;;;;;10.20;9.30;;;17.30;99.90;;;;;;5033067;28;20179;-66
2021/08/06 06:20:19;;;;;;;10.50;9.40;;;17.40;99.90;;;;;;5032174;28;20215;-66
2021/08/06 06:22:46;;;;;;;9.80;8.93;;;17.50;99.90;;;;;;5033391;28;20197;-66
2021/08/06 06:25:12;;;;;;;9.90;8.93;;;17.60;99.90;;;;;;5033192;28;20172;-66
2021/08/06 06:28:10;;;;;;;9.77;8.87;;;17.70;99.90;;;;;;5033009;28;20183;-67
2021/08/06 06:30:36;;;;;;;9.47;8.57;;;17.70;99.90;;;;;;4989265;28;20709;-65
2021/08/06 06:33:04;;;;;;;8.17;7.57;;;17.70;99.90;;;;;;5013469;28;20173;-65
2021/08/06 06:35:31;;;;;;;10.70;8.87;;;17.70;99.90;;;;;;5015935;28;20190;-66
2021/08/06 06:37:58;;;;;;;10.23;9.43;;;17.70;99.90;;;;;;5032230;28;21028;-65
2021/08/06 06:40:25;;;;;;;9.73;8.77;;;17.70;99.90;;;;;;5032212;28;20182;-66
2021/08/06 06:42:51;;;;;;;9.03;8.33;;;17.90;99.90;;;;;;5032950;28;20190;-66
2021/08/06 06:45:17;;;;;;;9.33;8.30;;;18.00;99.90;;;;;;5033212;28;20180;-66
2021/08/06 06:47:46;;;;;;;11.50;10.60;;;18.10;99.90;;;;;;5032446;28;20529;-65
2021/08/06 06:50:15;;;;;;;8.80;8.20;;;18.30;99.90;;;;;;5032517;28;20215;-66
2021/08/06 06:52:41;;;;;;;11.57;8.83;;;18.30;99.90;;;;;;5032702;28;20180;-66
2021/08/06 06:55:09;;;;;;;12.27;8.03;;;18.40;99.90;;;;;;5032855;28;20179;-66
2021/08/06 06:57:49;;;;;;;8.70;8.00;;;18.40;99.90;;;;;;5032452;28;20233;-65
2021/08/06 07:00:15;;;;;;;9.80;9.00;;;18.40;99.90;;;;;;5032338;28;20532;-66
2021/08/06 07:02:40;;;;;;;8.93;8.23;;;18.60;99.90;;;;;;5032572;28;20237;-66
2021/08/06 07:05:08;;;;;;;9.33;8.37;;;18.80;99.90;;;;;;5032706;28;20496;-65
2021/08/06 07:07:33;;;;;;;8.10;7.33;;;18.90;99.90;;;;;;5032341;28;20592;-66
2021/08/06 07:09:59;;;;;;;7.60;6.90;;;19.00;99.90;;;;;;5031899;28;20211;-66
2021/08/06 07:12:24;;;;;;;8.30;7.70;;;19.10;99.90;;;;;;5032203;28;20543;-67
2021/08/06 07:14:50;;;;;;;7.70;7.10;;;19.00;99.90;;;;;;5032393;28;20167;-65
2021/08/06 07:17:16;;;;;;;8.10;7.40;;;19.00;99.90;;;;;;5032125;28;20182;-65
2021/08/06 07:19:41;;;;;;;7.20;6.50;;;18.90;99.90;;;;;;5031710;28;20551;-66
2021/08/06 07:22:07;;;;;;;6.67;6.13;;;18.90;99.90;;;;;;5032202;28;20168;-65
2021/08/06 07:24:32;;;;;;;7.27;6.73;;;19.00;99.90;;;;;;5032176;28;20747;-65
2021/08/06 07:26:58;;;;;;;7.13;6.67;;;19.00;99.90;;;;;;5031777;28;20647;-66
2021/08/06 07:29:24;;;;;;;8.43;7.73;;;19.20;99.90;;;;;;5031388;28;20203;-66
2021/08/06 07:31:49;;;;;;;7.30;6.80;;;19.50;99.90;;;;;;5031899;28;20254;-66
2021/08/06 07:34:15;;;;;;;6.60;6.20;;;19.90;99.90;;;;;;5031856;28;20178;-66
2021/08/06 07:36:41;;;;;;;7.10;6.80;;;20.20;99.90;;;;;;5032085;28;20190;-66
2021/08/06 07:39:06;;;;;;;6.17;5.87;;;20.40;99.90;;;;;;5031849;28;20183;-65
2021/08/06 07:41:32;;;;;;;6.20;5.90;;;20.40;99.90;;;;;;5031674;28;20640;-66
2021/08/06 07:43:58;;;;;;;6.27;5.87;;;20.40;99.90;;;;;;5030883;28;20175;-66
2021/08/06 07:46:24;;;;;;;7.80;7.40;;;20.40;99.90;;;;;;5031803;28;20179;-66
2021/08/06 07:48:49;;;;;;;6.43;6.03;;;20.50;99.90;;;;;;5031850;28;20218;-67
2021/08/06 07:51:15;;;;;;;6.23;5.93;;;20.50;99.90;;;;;;5030768;28;20290;-67
2021/08/06 07:53:41;;;;;;;6.27;5.97;;;20.70;99.90;;;;;;5031459;28;20199;-66
2021/08/06 07:56:06;;;;;;;5.97;5.67;;;20.70;99.90;;;;;;5030824;28;20225;-67
2021/08/06 07:58:32;;;;;;;6.63;6.33;;;20.80;99.90;;;;;;5031171;28;20191;-67
2021/08/06 08:00:57;;;;;;;6.17;5.77;;;20.70;99.90;;;;;;5031476;28;20175;-66
2021/08/06 08:03:23;;;;;;;5.97;5.47;;;20.70;99.90;;;;;;5031854;28;20175;-66
2021/08/06 08:05:49;;;;;;;6.30;6.00;;;21.00;99.90;;;;;;5031709;28;20180;-67
2021/08/06 08:08:14;;;;;;;5.60;5.20;;;21.40;99.90;;;;;;5031650;28;20203;-67
2021/08/06 08:10:40;;;;;;;4.90;4.63;;;21.70;99.90;;;;;;5031241;28;20657;-66
2021/08/06 08:13:06;;;;;;;4.93;4.73;;;22.20;99.90;;;;;;5031590;28;20171;-67
2021/08/06 08:15:31;;;;;;;5.40;4.72;;;22.80;99.90;;;;;;5031668;28;20709;-66
2021/08/06 08:17:57;;;;;;;4.65;4.45;;;23.30;99.90;;;;;;5031446;28;20582;-67
2021/08/06 08:20:22;;;;;;;4.70;4.40;;;23.40;99.90;;;;;;5031349;28;20175;-67
2021/08/06 08:22:48;;;;;;;4.40;4.20;;;22.40;99.90;;;;;;5031569;28;20421;-66
2021/08/06 08:25:14;;;;;;;5.23;5.03;;;21.00;99.90;;;;;;5031807;28;20704;-67
2021/08/06 08:27:40;;;;;;;5.93;5.43;;;19.70;99.90;;;;;;5031313;28;20176;-67
2021/08/06 08:30:07;;;;;;;5.23;5.00;;;18.70;99.90;;;;;;5030992;28;20167;-66
2021/08/06 08:32:34;;;;;;;5.53;5.23;;;18.10;99.90;;;;;;5031473;28;20649;-66
2021/08/06 08:34:59;;;;;;;5.40;5.10;;;17.80;99.90;;;;;;5031461;28;20182;-66
2021/08/06 08:37:25;;;;;;;5.90;5.50;;;17.50;99.90;;;;;;5031420;28;20167;-66
2021/08/06 08:39:51;;;;;;;6.73;6.33;;;17.30;99.90;;;;;;5034928;28;20525;-67
2021/08/06 08:42:18;;;;;;;6.40;6.00;;;17.10;99.90;;;;;;5035375;28;20203;-66
2021/08/06 08:44:44;;;;;;;6.30;5.90;;;17.00;99.90;;;;;;5035432;28;20194;-66
2021/08/06 08:47:10;;;;;;;6.90;6.30;;;17.00;99.90;;;;;;5035229;28;20541;-65
2021/08/06 08:49:37;;;;;;;6.70;6.27;;;17.00;99.90;;;;;;5033540;28;20210;-65
2021/08/06 08:52:04;;;;;;;6.70;6.20;;;17.00;99.90;;;;;;5033705;28;20296;-65
2021/08/06 08:54:30;;;;;;;6.97;6.57;;;17.00;99.90;;;;;;5035317;28;20179;-66
2021/08/06 08:56:55;;;;;;;6.87;6.37;;;17.00;99.90;;;;;;5034544;28;20167;-66
2021/08/06 08:59:21;;;;;;;6.53;6.13;;;17.10;99.90;;;;;;5034815;28;20191;-66
2021/08/06 09:01:47;;;;;;;6.43;5.90;;;17.20;99.90;;;;;;5034934;28;20641;-66
2021/08/06 09:04:25;;;;;;;6.23;5.83;;;17.30;99.90;;;;;;5034907;28;20251;-66
2021/08/06 09:06:52;;;;;;;7.83;7.13;;;17.60;99.90;;;;;;5035012;28;20167;-65
2021/08/06 09:09:22;;;;;;;6.67;6.20;;;17.70;99.90;;;;;;5034073;28;20252;-66
2021/08/06 09:11:49;;;;;;;6.87;6.47;;;17.90;99.90;;;;;;5034496;28;20736;-66
2021/08/06 09:14:25;;;;;;;6.37;5.87;;;18.20;99.90;;;;;;5034354;28;20657;-66
2021/08/06 09:17:00;;;;;;;6.80;6.20;;;18.30;99.90;;;;;;5034899;28;20245;-66
2021/08/06 09:19:29;;;;;;;7.93;6.37;;;18.50;99.90;;;;;;5034353;28;20266;-66
2021/08/06 09:22:22;;;;;;;6.90;6.30;;;18.70;99.90;;;;;;5034133;28;20226;-66
2021/08/06 09:25:26;;;;;;;7.07;6.37;;;19.00;99.90;;;;;;5034155;28;20178;-66
2021/08/06 09:28:01;;;;;;;6.47;6.07;;;19.30;99.90;;;;;;5027539;28;20611;-65
2021/08/06 09:30:36;;;;;;;6.83;6.23;;;19.80;99.90;;;;;;5034439;28;20234;-65
2021/08/06 09:33:03;;;;;;;7.27;6.70;;;20.10;99.90;;;;;;5034147;28;20175;-66
2021/08/06 09:35:31;;;;;;;7.07;6.57;;;20.40;99.90;;;;;;5034547;28;20290;-66
2021/08/06 09:37:57;;;;;;;6.40;6.00;;;20.90;99.90;;;;;;5033795;28;20188;-67
2021/08/06 09:40:28;;;;;;;7.70;7.17;;;21.10;99.90;;;;;;5033838;28;20548;-66
2021/08/06 09:43:06;;;;;;;7.13;6.73;;;21.30;99.90;;;;;;5034092;28;20175;-67
2021/08/06 09:45:37;;;;;;;5.60;5.30;;;21.90;99.90;;;;;;5034249;28;20175;-68
2021/08/06 09:48:03;;;;;;;5.67;5.37;;;22.10;99.90;;;;;;5058413;22;20211;-67
2021/08/06 09:50:40;;;;;;;5.90;5.47;;;22.30;99.90;;;;;;5071857;28;20233;-65
2021/08/06 09:53:06;;;;;;;5.10;4.80;;;22.50;99.90;;;;;;5073741;28;20271;-67
2021/08/06 09:55:35;;;;;;;6.40;5.20;;;22.60;99.90;;;;;;5074082;28;20643;-66
2021/08/06 09:58:10;;;;;;;5.15;4.85;;;22.60;99.90;;;;;;5072816;28;20170;-66
2021/08/06 10:00:44;;;;;;;6.78;6.18;;;22.70;99.90;;;;;;5053694;28;20264;-68
2021/08/06 10:03:32;;;;;;;5.25;4.70;;;22.80;99.90;;;;;;5053560;28;20248;-67
2021/08/06 10:06:12;;;;;;;5.85;5.45;;;23.10;99.90;;;;;;5053698;28;20594;-67
2021/08/06 10:08:39;;;;;;;5.10;4.80;;;23.50;99.90;;;;;;5053575;28;20198;-65
2021/08/06 10:11:05;;;;;;;5.13;4.88;;;24.30;99.90;;;;;;5051905;28;20214;-64
2021/08/06 10:13:31;;;;;;;6.18;5.75;;;25.10;99.90;;;;;;5053639;28;20167;-65
2021/08/06 10:15:57;;;;;;;6.50;6.07;;;25.60;99.90;;;;;;5053470;28;20545;-65
2021/08/06 10:18:23;;;;;;;5.15;4.85;;;25.60;99.90;;;;;;5053352;28;20269;-65
2021/08/06 10:20:50;;;;;;;5.03;4.63;;;25.00;99.90;;;;;;5053328;28;20183;-64
2021/08/06 10:23:16;;;;;;;4.75;4.35;;;24.60;99.90;;;;;;5052007;28;20178;-64
2021/08/06 10:25:43;;;;;;;5.55;5.05;;;24.20;99.90;;;;;;5053419;28;20179;-67
2021/08/06 10:28:09;;;;;;;5.32;4.93;;;23.70;99.90;;;;;;5053225;28;20608;-67
2021/08/06 10:30:37;;;;;;;6.30;5.90;;;23.60;99.90;;;;;;5052792;28;20199;-67
2021/08/06 10:33:08;;;;;;;5.28;4.97;;;24.00;99.90;;;;;;5053254;28;20171;-65
2021/08/06 10:35:53;;;;;;;5.00;4.70;;;24.40;99.90;;;;;;5053125;28;20224;-64
2021/08/06 10:38:40;;;;;;;5.22;4.85;;;24.50;99.90;;;;;;5053036;28;20249;-64
2021/08/06 10:41:12;;;;;;;5.45;5.05;;;24.40;99.90;;;;;;5052673;28;20182;-64
2021/08/06 10:43:45;;;;;;;5.63;5.28;;;24.30;99.90;;;;;;5053073;28;20171;-67
2021/08/06 10:46:13;;;;;;;5.82;5.43;;;24.50;99.90;;;;;;5052959;28;20181;-64
2021/08/06 10:48:41;;;;;;;5.50;5.10;;;24.60;99.90;;;;;;5052667;28;20562;-64
2021/08/06 10:51:15;;;;;;;5.07;4.68;;;24.60;99.90;;;;;;5052390;28;20198;-67
2021/08/06 10:53:56;;;;;;;5.05;4.75;;;24.70;99.90;;;;;;5052354;28;20213;-66
2021/08/06 10:56:25;;;;;;;4.57;4.28;;;24.90;99.90;;;;;;5051617;28;20179;-65
2021/08/06 10:58:53;;;;;;;5.30;5.00;;;25.10;99.90;;;;;;5051631;28;20558;-65
2021/08/06 11:01:31;;;;;;;4.93;4.53;;;25.20;99.90;;;;;;5051362;28;20179;-64
2021/08/06 11:04:16;;;;;;;4.70;4.50;;;25.50;99.90;;;;;;5052456;28;20658;-64
2021/08/06 11:06:46;;;;;;;5.30;4.90;;;24.80;99.90;;;;;;5052795;28;20193;-64
2021/08/06 11:09:31;;;;;;;5.53;5.03;;;24.80;99.90;;;;;;5052218;28;20198;-65
2021/08/06 11:12:30;;;;;;;4.88;4.68;;;25.00;99.90;;;;;;5052291;28;20217;-64
2021/08/06 11:14:56;;;;;;;5.18;4.97;;;24.70;99.90;;;;;;5038266;28;20244;-65
2021/08/06 11:17:24;;;;;;;4.53;4.32;;;24.00;99.90;;;;;;5052440;28;20640;-64
2021/08/06 11:20:13;;;;;;;5.75;5.40;;;23.40;99.90;;;;;;5051773;28;20191;-67
2021/08/06 11:22:44;;;;;;;4.32;4.13;;;23.30;99.90;;;;;;5051833;28;20203;-67
2021/08/06 11:25:15;;;;;;;5.30;5.00;;;22.90;99.90;;;;;;5052177;28;20162;-67
2021/08/06 11:27:47;;;;;;;5.97;5.68;;;22.90;99.90;;;;;;5050740;28;20178;-66
2021/08/06 11:30:29;;;;;;;5.20;4.90;;;22.80;99.90;;;;;;5051946;28;20190;-67
2021/08/06 11:33:00;;;;;;;6.93;5.23;;;22.30;99.90;;;;;;5050605;28;20269;-66
2021/08/06 11:35:33;;;;;;;7.07;6.37;;;21.70;99.90;;;;;;5052189;28;20210;-66
2021/08/06 11:38:13;;;;;;;5.80;5.50;;;21.10;99.90;;;;;;5050170;28;20175;-67
2021/08/06 11:40:43;;;;;;;8.10;7.60;;;20.60;99.90;;;;;;5051883;28;20166;-66
2021/08/06 11:43:13;;;;;;;6.73;6.43;;;20.20;99.90;;;;;;5051655;28;20182;-66
2021/08/06 11:45:40;;;;;;;6.60;6.30;;;19.80;99.90;;;;;;5052039;28;20179;-66
2021/08/06 11:48:05;;;;;;;6.13;5.83;;;19.70;99.90;;;;;;5051279;28;20269;-66
2021/08/06 11:51:05;;;;;;;5.60;5.30;;;19.70;99.90;;;;;;5051773;28;20700;-67
2021/08/06 11:53:31;;;;;;;6.43;6.00;;;19.90;99.90;;;;;;5051334;28;20576;-67
2021/08/06 11:55:59;;;;;;;5.40;5.10;;;20.30;99.90;;;;;;5051776;28;20254;-67
2021/08/06 11:58:30;;;;;;;5.77;5.40;;;21.10;99.90;;;;;;5054555;28;20698;-65
2021/08/06 12:00:56;;;;;;;4.70;4.40;;;22.00;99.90;;;;;;5050692;28;20179;-66
2021/08/06 12:03:21;;;;;;;4.68;4.30;;;22.90;99.90;;;;;;5051454;28;20240;-67
2021/08/06 12:05:49;;;;;;;4.30;4.10;;;23.50;99.90;;;;;;5051674;28;20186;-67
2021/08/06 12:08:24;;;;;;;4.40;4.20;;;23.80;99.90;;;;;;5051393;28;20302;-67
2021/08/06 12:11:06;;;;;;;4.55;4.35;;;23.80;99.90;;;;;;5039807;28;20214;-66
2021/08/06 12:13:48;;;;;;;4.40;4.10;;;23.90;99.90;;;;;;5050875;28;20179;-66
2021/08/06 12:16:39;;;;;;;4.82;4.53;;;24.00;99.90;;;;;;5051189;28;20182;-66
2021/08/06 12:19:08;;;;;;;4.80;4.50;;;24.30;99.90;;;;;;5045595;28;20289;-66
2021/08/06 12:21:36;;;;;;;4.22;4.03;;;24.70;99.90;;;;;;5051156;28;20514;-66
2021/08/06 12:24:08;;;;;;;4.82;4.53;;;25.10;99.90;;;;;;5050868;28;20190;-66
2021/08/06 12:26:34;;;;;;;4.55;4.35;;;25.00;99.90;;;;;;5051393;28;20201;-66
2021/08/06 12:29:27;;;;;;;4.60;4.40;;;25.10;99.90;;;;;;5051002;28;20667;-66
2021/08/06 12:32:11;;;;;;;4.18;3.97;;;25.30;99.90;;;;;;5051136;28;20202;-66
2021/08/06 12:34:49;;;;;;;4.70;4.40;;;25.20;99.90;;;;;;5049944;28;20178;-66
2021/08/06 12:37:17;;;;;;;4.95;4.75;;;25.10;99.90;;;;;;5051114;28;20170;-66
2021/08/06 12:39:45;;;;;;;5.50;5.20;;;25.00;99.90;;;;;;5049613;28;20195;-66
2021/08/06 12:42:17;;;;;;;4.47;4.07;;;24.90;99.90;;;;;;5050778;28;20270;-66
2021/08/06 12:45:02;;;;;;;4.80;4.53;;;24.90;99.90;;;;;;5051374;28;20175;-66
2021/08/06 12:47:45;;;;;;;4.55;4.25;;;25.10;99.90;;;;;;5050785;28;20202;-66
2021/08/06 12:50:13;;;;;;;4.90;4.60;;;25.10;99.90;;;;;;5050377;28;20217;-66
2021/08/06 12:52:42;;;;;;;4.68;4.38;;;25.00;99.90;;;;;;5050955;28;20529;-65